sensor_id;sensor_type;location;lat;lon;timestamp;pressure;altitude;pressure_sealevel;temperature;humidity
50123;BME280;36021;48.670;6.184;2022-08-30T00:01:08;99089.94;;;24.31;100.00
50123;BME280;36021;48.670;6.184;2022-08-30T00:03:42;99089.84;;;24.24;100.00
50123;BME280;36021;48.670;6.184;2022-08-30T00:06:13;99103.84;;;24.17;100.00
50123;BME280;36021;48.670;6.184;2022-08-30T00:08:41;99101.03;;;23.91;100.00
50123;BME280;36021;48.670;6.184;2022-08-30T00:11:11;99088.59;;;23.92;100.00
50123;BME280;36021;48.670;6.184;2022-08-30T00:13:39;99092.78;;;24.05;100.00
50123;BME280;36021;48.670;6.184;2022-08-30T00:16:05;99091.06;;;23.97;100.00
50123;BME280;36021;48.670;6.184;2022-08-30T00:18:32;99091.94;;;24.01;100.00
50123;BME280;36021;48.670;6.184;2022-08-30T00:20:58;99091.06;;;23.97;100.00
50123;BME280;36021;48.670;6.184;2022-08-30T00:23:24;99088.75;;;24.06;100.00
50123;BME280;36021;48.670;6.184;2022-08-30T00:25:52;99088.25;;;23.97;100.00
50123;BME280;36021;48.670;6.184;2022-08-30T00:28:18;99086.34;;;24.04;100.00
50123;BME280;36021;48.670;6.184;2022-08-30T00:30:45;99094.84;;;24.08;100.00
50123;BME280;36021;48.670;6.184;2022-08-30T00:33:12;99086.38;;;24.08;100.00
50123;BME280;36021;48.670;6.184;2022-08-30T00:35:39;99090.38;;;24.07;100.00
50123;BME280;36021;48.670;6.184;2022-08-30T00:38:07;99097.59;;;24.04;100.00
50123;BME280;36021;48.670;6.184;2022-08-30T00:40:32;99093.97;;;24.04;100.00
50123;BME280;36021;48.670;6.184;2022-08-30T00:42:59;99091.16;;;24.04;100.00
50123;BME280;36021;48.670;6.184;2022-08-30T00:45:28;99089.97;;;24.05;100.00
50123;BME280;36021;48.670;6.184;2022-08-30T00:47:55;99089.38;;;23.92;100.00
50123;BME280;36021;48.670;6.184;2022-08-30T00:50:28;99084.03;;;23.83;100.00
50123;BME280;36021;48.670;6.184;2022-08-30T00:52:58;99080.31;;;23.76;100.00
50123;BME280;36021;48.670;6.184;2022-08-30T00:55:25;99078.75;;;23.78;100.00
50123;BME280;36021;48.670;6.184;2022-08-30T00:57:56;99073.97;;;23.82;100.00
50123;BME280;36021;48.670;6.184;2022-08-30T01:00:22;99077.19;;;23.81;100.00
50123;BME280;36021;48.670;6.184;2022-08-30T01:02:48;99073.75;;;23.65;100.00
50123;BME280;36021;48.670;6.184;2022-08-30T01:05:14;99070.53;;;23.66;100.00
50123;BME280;36021;48.670;6.184;2022-08-30T01:07:41;99070.56;;;23.70;100.00
50123;BME280;36021;48.670;6.184;2022-08-30T01:10:09;99079.84;;;23.70;100.00
50123;BME280;36021;48.670;6.184;2022-08-30T01:12:37;99083.41;;;23.67;100.00
50123;BME280;36021;48.670;6.184;2022-08-30T01:15:04;99080.25;;;23.69;100.00
50123;BME280;36021;48.670;6.184;2022-08-30T01:17:31;99083.41;;;23.67;100.00
50123;BME280;36021;48.670;6.184;2022-08-30T01:20:06;99073.28;;;23.63;100.00
50123;BME280;36021;48.670;6.184;2022-08-30T01:22:41;99068.88;;;23.62;100.00
50123;BME280;36021;48.670;6.184;2022-08-30T01:25:09;99079.97;;;23.51;100.00
50123;BME280;36021;48.670;6.184;2022-08-30T01:27:43;99076.34;;;23.28;100.00
50123;BME280;36021;48.670;6.184;2022-08-30T01:30:10;99076.63;;;23.42;100.00
50123;BME280;36021;48.670;6.184;2022-08-30T01:32:42;99069.34;;;23.41;100.00
50123;BME280;36021;48.670;6.184;2022-08-30T01:35:11;99074.22;;;23.44;100.00
50123;BME280;36021;48.670;6.184;2022-08-30T01:37:37;99068.59;;;23.44;100.00
50123;BME280;36021;48.670;6.184;2022-08-30T01:40:05;99073.88;;;23.46;100.00
50123;BME280;36021;48.670;6.184;2022-08-30T01:42:31;99072.91;;;23.38;100.00
50123;BME280;36021;48.670;6.184;2022-08-30T01:44:57;99072.09;;;23.38;100.00
50123;BME280;36021;48.670;6.184;2022-08-30T01:47:23;99074.09;;;23.37;100.00
50123;BME280;36021;48.670;6.184;2022-08-30T01:49:49;99084.47;;;23.33;100.00
50123;BME280;36021;48.670;6.184;2022-08-30T01:52:16;99076.03;;;23.33;100.00
50123;BME280;36021;48.670;6.184;2022-08-30T01:54:43;99073.53;;;23.28;100.00
50123;BME280;36021;48.670;6.184;2022-08-30T01:57:13;99079.31;;;23.12;100.00
50123;BME280;36021;48.670;6.184;2022-08-30T01:59:41;99073.75;;;23.16;100.00
50123;BME280;36021;48.670;6.184;2022-08-30T02:02:09;99073.25;;;23.10;100.00
50123;BME280;36021;48.670;6.184;2022-08-30T02:04:35;99064.03;;;23.10;100.00
50123;BME280;36021;48.670;6.184;2022-08-30T02:07:02;99067.69;;;23.14;100.00
50123;BME280;36021;48.670;6.184;2022-08-30T02:09:28;99075.75;;;23.15;100.00
50123;BME280;36021;48.670;6.184;2022-08-30T02:11:54;99074.94;;;23.15;100.00
50123;BME280;36021;48.670;6.184;2022-08-30T02:14:20;99078.84;;;23.07;100.00
50123;BME280;36021;48.670;6.184;2022-08-30T02:16:45;99080.91;;;23.10;100.00
50123;BME280;36021;48.670;6.184;2022-08-30T02:19:11;99078.09;;;23.10;100.00
50123;BME280;36021;48.670;6.184;2022-08-30T02:21:37;99086.41;;;23.03;100.00
50123;BME280;36021;48.670;6.184;2022-08-30T02:24:03;99082.38;;;23.04;100.00
50123;BME280;36021;48.670;6.184;2022-08-30T02:26:29;99077.16;;;23.02;100.00
50123;BME280;36021;48.670;6.184;2022-08-30T02:28:56;99083.06;;;22.97;100.00
50123;BME280;36021;48.670;6.184;2022-08-30T02:31:22;99085.03;;;22.93;100.00
50123;BME280;36021;48.670;6.184;2022-08-30T02:33:51;99069.41;;;22.96;100.00
50123;BME280;36021;48.670;6.184;2022-08-30T02:36:18;99073.41;;;22.95;100.00
50123;BME280;36021;48.670;6.184;2022-08-30T02:38:46;99064.59;;;22.96;100.00
50123;BME280;36021;48.670;6.184;2022-08-30T02:41:12;99067.78;;;22.95;100.00
50123;BME280;36021;48.670;6.184;2022-08-30T02:43:38;99069.78;;;22.94;100.00
50123;BME280;36021;48.670;6.184;2022-08-30T02:46:03;99065.28;;;22.90;100.00
50123;BME280;36021;48.670;6.184;2022-08-30T02:48:29;99065.28;;;22.90;100.00
50123;BME280;36021;48.670;6.184;2022-08-30T02:50:55;99073.19;;;22.84;100.00
50123;BME280;36021;48.670;6.184;2022-08-30T02:53:21;99065.03;;;22.75;100.00
50123;BME280;36021;48.670;6.184;2022-08-30T02:55:48;99056.47;;;22.68;100.00
50123;BME280;36021;48.670;6.184;2022-08-30T02:58:13;99054.25;;;22.58;100.00
50123;BME280;36021;48.670;6.184;2022-08-30T03:00:40;99054.09;;;22.28;100.00
50123;BME280;36021;48.670;6.184;2022-08-30T03:03:06;99061.50;;;22.17;100.00
50123;BME280;36021;48.670;6.184;2022-08-30T03:05:33;99051.38;;;22.13;100.00
50123;BME280;36021;48.670;6.184;2022-08-30T03:07:59;99053.91;;;22.18;100.00
50123;BME280;36021;48.670;6.184;2022-08-30T03:10:26;99043.59;;;22.25;100.00
50123;BME280;36021;48.670;6.184;2022-08-30T03:12:53;99052.97;;;22.33;100.00
50123;BME280;36021;48.670;6.184;2022-08-30T03:15:19;99046.63;;;22.36;100.00
50123;BME280;36021;48.670;6.184;2022-08-30T03:17:46;99047.84;;;22.39;100.00
50123;BME280;36021;48.670;6.184;2022-08-30T03:20:12;99047.50;;;22.40;100.00
50123;BME280;36021;48.670;6.184;2022-08-30T03:22:38;99049.88;;;22.38;100.00
50123;BME280;36021;48.670;6.184;2022-08-30T03:25:04;99053.94;;;22.41;100.00
50123;BME280;36021;48.670;6.184;2022-08-30T03:27:33;99049.50;;;22.40;100.00
50123;BME280;36021;48.670;6.184;2022-08-30T03:29:58;99051.94;;;22.41;100.00
50123;BME280;36021;48.670;6.184;2022-08-30T03:32:24;99043.81;;;22.36;100.00
50123;BME280;36021;48.670;6.184;2022-08-30T03:34:50;99034.19;;;22.37;100.00
50123;BME280;36021;48.670;6.184;2022-08-30T03:37:17;99032.16;;;22.34;100.00
50123;BME280;36021;48.670;6.184;2022-08-30T03:39:44;99038.56;;;22.35;100.00
50123;BME280;36021;48.670;6.184;2022-08-30T03:42:10;99041.47;;;22.38;100.00
50123;BME280;36021;48.670;6.184;2022-08-30T03:44:36;99036.19;;;22.37;100.00
50123;BME280;36021;48.670;6.184;2022-08-30T03:47:03;99039.13;;;22.21;100.00
50123;BME280;36021;48.670;6.184;2022-08-30T03:49:29;99034.84;;;22.08;100.00
50123;BME280;36021;48.670;6.184;2022-08-30T03:51:54;99032.69;;;21.82;100.00
50123;BME280;36021;48.670;6.184;2022-08-30T03:54:20;99035.41;;;21.78;100.00
50123;BME280;36021;48.670;6.184;2022-08-30T03:56:46;99038.50;;;21.73;100.00
50123;BME280;36021;48.670;6.184;2022-08-30T03:59:11;99033.94;;;21.85;100.00
50123;BME280;36021;48.670;6.184;2022-08-30T04:01:39;99028.50;;;21.92;100.00
50123;BME280;36021;48.670;6.184;2022-08-30T04:04:07;99027.84;;;21.98;100.00
50123;BME280;36021;48.670;6.184;2022-08-30T04:06:33;99025.53;;;22.04;100.00
50123;BME280;36021;48.670;6.184;2022-08-30T04:08:58;99031.16;;;22.04;100.00
50123;BME280;36021;48.670;6.184;2022-08-30T04:11:24;99034.38;;;22.06;100.00
50123;BME280;36021;48.670;6.184;2022-08-30T04:13:50;99034.84;;;22.08;100.00
50123;BME280;36021;48.670;6.184;2022-08-30T04:16:19;99026.41;;;22.08;100.00
50123;BME280;36021;48.670;6.184;2022-08-30T04:18:45;99026.84;;;22.10;100.00
50123;BME280;36021;48.670;6.184;2022-08-30T04:21:11;99028.75;;;22.06;100.00
50123;BME280;36021;48.670;6.184;2022-08-30T04:23:37;99034.38;;;22.06;100.00
50123;BME280;36021;48.670;6.184;2022-08-30T04:26:04;99035.06;;;21.99;100.00
50123;BME280;36021;48.670;6.184;2022-08-30T04:28:30;99033.03;;;21.80;100.00
50123;BME280;36021;48.670;6.184;2022-08-30T04:30:55;99037.47;;;21.81;100.00
50123;BME280;36021;48.670;6.184;2022-08-30T04:33:22;99039.53;;;21.85;100.00
50123;BME280;36021;48.670;6.184;2022-08-30T04:35:48;99044.41;;;21.88;100.00
50123;BME280;36021;48.670;6.184;2022-08-30T04:38:15;99045.59;;;21.87;100.00
50123;BME280;36021;48.670;6.184;2022-08-30T04:40:43;99039.09;;;21.82;100.00
50123;BME280;36021;48.670;6.184;2022-08-30T04:43:09;99045.31;;;21.72;100.00
50123;BME280;36021;48.670;6.184;2022-08-30T04:45:40;99037.31;;;21.74;100.00
50123;BME280;36021;48.670;6.184;2022-08-30T04:48:06;99038.88;;;21.72;100.00
50123;BME280;36021;48.670;6.184;2022-08-30T04:50:32;99047.66;;;21.70;100.00
50123;BME280;36021;48.670;6.184;2022-08-30T04:52:58;99042.34;;;21.65;100.00
50123;BME280;36021;48.670;6.184;2022-08-30T04:55:24;99041.59;;;21.68;100.00
50123;BME280;36021;48.670;6.184;2022-08-30T04:57:51;99041.66;;;21.53;100.00
50123;BME280;36021;48.670;6.184;2022-08-30T05:00:17;99047.47;;;21.44;100.00
50123;BME280;36021;48.670;6.184;2022-08-30T05:02:45;99044.56;;;21.41;100.00
50123;BME280;36021;48.670;6.184;2022-08-30T05:05:11;99051.91;;;21.45;100.00
50123;BME280;36021;48.670;6.184;2022-08-30T05:07:56;99053.06;;;21.44;100.00
50123;BME280;36021;48.670;6.184;2022-08-30T05:10:22;99050.88;;;21.53;100.00
50123;BME280;36021;48.670;6.184;2022-08-30T05:12:49;99061.75;;;21.55;100.00
50123;BME280;36021;48.670;6.184;2022-08-30T05:15:15;99061.09;;;21.61;100.00
50123;BME280;36021;48.670;6.184;2022-08-30T05:17:41;99059.53;;;21.64;100.00
50123;BME280;36021;48.670;6.184;2022-08-30T05:20:08;99068.59;;;21.57;100.00
50123;BME280;36021;48.670;6.184;2022-08-30T05:22:36;99067.22;;;21.67;100.00
50123;BME280;36021;48.670;6.184;2022-08-30T05:25:03;99065.00;;;21.76;100.00
50123;BME280;36021;48.670;6.184;2022-08-30T05:27:30;99068.63;;;21.76;100.00
50123;BME280;36021;48.670;6.184;2022-08-30T05:29:56;99067.44;;;21.77;100.00
50123;BME280;36021;48.670;6.184;2022-08-30T05:32:21;99070.84;;;21.67;100.00
50123;BME280;36021;48.670;6.184;2022-08-30T05:34:48;99069.19;;;21.66;100.00
50123;BME280;36021;48.670;6.184;2022-08-30T05:37:15;99072.31;;;21.80;100.00
50123;BME280;36021;48.670;6.184;2022-08-30T05:39:41;99076.59;;;21.74;100.00
50123;BME280;36021;48.670;6.184;2022-08-30T05:42:06;99084.72;;;21.79;100.00
50123;BME280;36021;48.670;6.184;2022-08-30T05:44:32;99077.28;;;21.87;100.00
50123;BME280;36021;48.670;6.184;2022-08-30T05:46:58;99084.72;;;21.79;100.00
50123;BME280;36021;48.670;6.184;2022-08-30T05:49:23;99087.94;;;21.97;100.00
50123;BME280;36021;48.670;6.184;2022-08-30T05:51:49;99086.84;;;22.02;100.00
50123;BME280;36021;48.670;6.184;2022-08-30T05:54:15;99085.44;;;22.11;100.00
50123;BME280;36021;48.670;6.184;2022-08-30T05:56:43;99087.13;;;22.16;100.00
50123;BME280;36021;48.670;6.184;2022-08-30T05:59:12;99090.47;;;22.21;100.00
50123;BME280;36021;48.670;6.184;2022-08-30T06:01:43;99084.31;;;22.16;100.00
50123;BME280;36021;48.670;6.184;2022-08-30T06:04:10;99088.75;;;22.17;100.00
50123;BME280;36021;48.670;6.184;2022-08-30T06:06:39;99090.47;;;22.21;100.00
50123;BME280;36021;48.670;6.184;2022-08-30T06:09:09;99085.22;;;22.20;100.00
50123;BME280;36021;48.670;6.184;2022-08-30T06:11:35;99095.69;;;22.23;100.00
50123;BME280;36021;48.670;6.184;2022-08-30T06:14:02;99090.66;;;22.32;100.00
50123;BME280;36021;48.670;6.184;2022-08-30T06:16:28;99094.94;;;22.45;100.00
50123;BME280;36021;48.670;6.184;2022-08-30T06:18:56;99088.72;;;22.55;100.00
50123;BME280;36021;48.670;6.184;2022-08-30T06:21:29;99097.72;;;22.64;100.00
50123;BME280;36021;48.670;6.184;2022-08-30T06:23:56;99089.16;;;22.57;100.00
50123;BME280;36021;48.670;6.184;2022-08-30T06:26:24;99101.72;;;22.63;100.00
50123;BME280;36021;48.670;6.184;2022-08-30T06:28:50;99101.72;;;22.63;100.00
50123;BME280;36021;48.670;6.184;2022-08-30T06:31:18;99097.28;;;22.62;100.00
50123;BME280;36021;48.670;6.184;2022-08-30T06:33:44;99098.47;;;22.61;100.00
50123;BME280;36021;48.670;6.184;2022-08-30T06:36:17;99093.66;;;22.62;100.00
50123;BME280;36021;48.670;6.184;2022-08-30T06:38:43;99089.16;;;22.57;100.00
50123;BME280;36021;48.670;6.184;2022-08-30T06:41:15;99094.34;;;22.55;100.00
50123;BME280;36021;48.670;6.184;2022-08-30T06:43:43;99096.69;;;22.72;100.00
50123;BME280;36021;48.670;6.184;2022-08-30T06:46:12;99097.19;;;22.78;100.00
50123;BME280;36021;48.670;6.184;2022-08-30T06:48:38;99091.63;;;22.81;100.00
50123;BME280;36021;48.670;6.184;2022-08-30T06:51:04;99103.63;;;22.78;100.00
50123;BME280;36021;48.670;6.184;2022-08-30T06:53:30;99099.16;;;22.74;100.00
50123;BME280;36021;48.670;6.184;2022-08-30T06:56:02;99097.59;;;22.57;100.00
50123;BME280;36021;48.670;6.184;2022-08-30T06:58:31;99099.19;;;22.77;100.00
50123;BME280;36021;48.670;6.184;2022-08-30T07:00:59;99101.88;;;22.70;100.00
50123;BME280;36021;48.670;6.184;2022-08-30T07:03:25;99100.69;;;22.52;100.00
50123;BME280;36021;48.670;6.184;2022-08-30T07:05:52;99108.38;;;22.74;100.00
50123;BME280;36021;48.670;6.184;2022-08-30T07:08:19;99106.94;;;22.84;100.00
50123;BME280;36021;48.670;6.184;2022-08-30T07:10:45;99104.78;;;22.97;100.00
50123;BME280;36021;48.670;6.184;2022-08-30T07:13:11;99110.63;;;23.11;100.00
50123;BME280;36021;48.670;6.184;2022-08-30T07:15:41;99109.13;;;23.17;100.00
50123;BME280;36021;48.670;6.184;2022-08-30T07:18:09;99112.16;;;23.31;100.00
50123;BME280;36021;48.670;6.184;2022-08-30T07:20:53;99105.56;;;23.43;100.00
50123;BME280;36021;48.670;6.184;2022-08-30T07:23:19;99109.16;;;23.43;100.00
50123;BME280;36021;48.670;6.184;2022-08-30T07:25:46;99099.56;;;23.44;100.00
50123;BME280;36021;48.670;6.184;2022-08-30T07:28:13;99100.03;;;23.50;100.00
50123;BME280;36021;48.670;6.184;2022-08-30T07:30:40;99101.44;;;23.63;100.00
50123;BME280;36021;48.670;6.184;2022-08-30T07:33:06;99101.34;;;23.85;100.00
50123;BME280;36021;48.670;6.184;2022-08-30T07:35:34;99102.03;;;23.75;100.00
50123;BME280;36021;48.670;6.184;2022-08-30T07:37:59;99104.00;;;24.01;100.00
50123;BME280;36021;48.670;6.184;2022-08-30T07:40:25;99107.28;;;24.07;100.00
50123;BME280;36021;48.670;6.184;2022-08-30T07:42:51;99107.94;;;23.97;100.00
50123;BME280;36021;48.670;6.184;2022-08-30T07:45:17;99097.47;;;24.23;100.00
50123;BME280;36021;48.670;6.184;2022-08-30T07:47:43;99092.47;;;24.43;100.00
50123;BME280;36021;48.670;6.184;2022-08-30T07:50:09;99090.06;;;24.45;100.00
50123;BME280;36021;48.670;6.184;2022-08-30T07:52:34;99088.66;;;24.62;100.00
50123;BME280;36021;48.670;6.184;2022-08-30T07:55:00;99084.69;;;24.66;100.00
50123;BME280;36021;48.670;6.184;2022-08-30T07:57:26;99085.69;;;24.84;100.00
50123;BME280;36021;48.670;6.184;2022-08-30T07:59:53;99084.72;;;24.70;100.00
50123;BME280;36021;48.670;6.184;2022-08-30T08:02:19;99079.34;;;24.95;100.00
50123;BME280;36021;48.670;6.184;2022-08-30T08:04:45;99088.19;;;24.93;100.00
50123;BME280;36021;48.670;6.184;2022-08-30T08:07:11;99085.41;;;24.97;100.00
50123;BME280;36021;48.670;6.184;2022-08-30T08:09:37;99080.31;;;25.13;100.00
50123;BME280;36021;48.670;6.184;2022-08-30T08:12:04;99090.69;;;25.02;100.00
50123;BME280;36021;48.670;6.184;2022-08-30T08:14:31;99088.28;;;25.04;100.00
50123;BME280;36021;48.670;6.184;2022-08-30T08:16:57;99094.50;;;25.27;100.00
50123;BME280;36021;48.670;6.184;2022-08-30T08:19:23;99091.22;;;25.18;100.00
50123;BME280;36021;48.670;6.184;2022-08-30T08:21:49;99096.28;;;25.49;100.00
50123;BME280;36021;48.670;6.184;2022-08-30T08:24:15;99102.03;;;25.60;100.00
50123;BME280;36021;48.670;6.184;2022-08-30T08:26:41;99101.72;;;25.68;100.00
50123;BME280;36021;48.670;6.184;2022-08-30T08:29:07;99092.88;;;25.73;100.00
50123;BME280;36021;48.670;6.184;2022-08-30T08:31:35;99099.31;;;25.70;100.00
50123;BME280;36021;48.670;6.184;2022-08-30T08:34:02;99091.88;;;25.48;100.00
50123;BME280;36021;48.670;6.184;2022-08-30T08:36:32;99094.56;;;25.85;100.00
50123;BME280;36021;48.670;6.184;2022-08-30T08:38:58;99101.47;;;25.95;100.00
50123;BME280;36021;48.670;6.184;2022-08-30T08:47:03;99100.47;;;26.38;100.00
50123;BME280;36021;48.670;6.184;2022-08-30T08:49:36;99102.94;;;26.47;100.00
50123;BME280;36021;48.670;6.184;2022-08-30T08:52:07;99097.69;;;26.52;100.00
50123;BME280;36021;48.670;6.184;2022-08-30T08:54:57;99106.19;;;26.56;100.00
50123;BME280;36021;48.670;6.184;2022-08-30T08:57:25;99106.09;;;26.31;100.00
50123;BME280;36021;48.670;6.184;2022-08-30T08:59:52;99096.50;;;26.53;100.00
50123;BME280;36021;48.670;6.184;2022-08-30T09:02:35;99099.69;;;26.45;100.00
50123;BME280;36021;48.670;6.184;2022-08-30T09:05:04;99095.72;;;26.63;100.00
50123;BME280;36021;48.670;6.184;2022-08-30T09:07:35;99100.22;;;26.82;100.00
50123;BME280;36021;48.670;6.184;2022-08-30T09:10:02;99099.84;;;27.08;100.00
50123;BME280;36021;48.670;6.184;2022-08-30T09:12:28;99109.94;;;27.16;100.00
50123;BME280;36021;48.670;6.184;2022-08-30T09:14:57;99105.50;;;27.01;100.00
50123;BME280;36021;48.670;6.184;2022-08-30T09:17:26;99101.47;;;27.30;100.00
50123;BME280;36021;48.670;6.184;2022-08-30T09:24:52;99096.53;;;26.74;100.00
50123;BME280;36021;48.670;6.184;2022-08-30T09:27:31;99094.97;;;26.87;100.00
50123;BME280;36021;48.670;6.184;2022-08-30T09:30:09;99092.56;;;27.11;100.00
50123;BME280;36021;48.670;6.184;2022-08-30T09:32:42;99097.44;;;27.31;100.00
50123;BME280;36021;48.670;6.184;2022-08-30T09:35:12;99089.72;;;27.39;100.00
50123;BME280;36021;48.670;6.184;2022-08-30T09:37:52;99084.47;;;27.69;100.00
50123;BME280;36021;48.670;6.184;2022-08-30T09:40:27;99083.66;;;27.72;100.00
50123;BME280;36021;48.670;6.184;2022-08-30T09:43:07;99086.00;;;28.02;100.00
50123;BME280;36021;48.670;6.184;2022-08-30T09:45:40;99090.03;;;28.12;100.00
50123;BME280;36021;48.670;6.184;2022-08-30T09:53:38;99079.00;;;28.35;100.00
50123;BME280;36021;48.670;6.184;2022-08-30T09:56:17;99076.06;;;28.60;100.00
50123;BME280;36021;48.670;6.184;2022-08-30T10:01:30;99067.75;;;28.90;100.00
50123;BME280;36021;48.670;6.184;2022-08-30T10:04:09;99071.22;;;29.19;100.00
50123;BME280;36021;48.670;6.184;2022-08-30T10:06:45;99069.88;;;29.34;100.00
50123;BME280;36021;48.670;6.184;2022-08-30T10:09:27;99061.97;;;29.52;100.00
50123;BME280;36021;48.670;6.184;2022-08-30T10:15:12;99063.22;;;29.51;100.00
50123;BME280;36021;48.670;6.184;2022-08-30T10:20:22;99050.59;;;29.96;100.00
50123;BME280;36021;48.670;6.184;2022-08-30T10:23:15;99053.91;;;30.22;100.00
50123;BME280;36021;48.670;6.184;2022-08-30T10:25:52;99058.72;;;30.59;100.00
50123;BME280;36021;48.670;6.184;2022-08-30T10:28:28;99045.97;;;30.40;100.00
50123;BME280;36021;48.670;6.184;2022-08-30T10:31:00;99039.38;;;30.16;100.00
50123;BME280;36021;48.670;6.184;2022-08-30T10:33:34;99040.56;;;30.49;100.00
50123;BME280;36021;48.670;6.184;2022-08-30T10:36:05;99045.22;;;30.89;100.00
50123;BME280;36021;48.670;6.184;2022-08-30T10:38:35;99027.84;;;31.11;100.00
50123;BME280;36021;48.670;6.184;2022-08-30T10:41:28;99037.41;;;30.70;100.00
50123;BME280;36021;48.670;6.184;2022-08-30T10:44:12;99041.91;;;30.98;100.00
50123;BME280;36021;48.670;6.184;2022-08-30T10:49:18;99033.53;;;31.11;100.00
50123;BME280;36021;48.670;6.184;2022-08-30T10:51:53;99028.59;;;31.38;100.00
50123;BME280;36021;48.670;6.184;2022-08-30T10:54:37;99021.50;;;31.69;100.00
50123;BME280;36021;48.670;6.184;2022-08-30T10:57:05;99027.00;;;31.80;100.00
50123;BME280;36021;48.670;6.184;2022-08-30T10:59:32;99023.78;;;31.97;100.00
50123;BME280;36021;48.670;6.184;2022-08-30T11:04:53;99023.84;;;32.33;100.00
50123;BME280;36021;48.670;6.184;2022-08-30T11:13:06;99010.69;;;32.59;100.00
50123;BME280;36021;48.670;6.184;2022-08-30T11:15:35;99003.72;;;32.92;100.00
50123;BME280;36021;48.670;6.184;2022-08-30T11:18:15;99009.91;;;32.75;100.00
50123;BME280;36021;48.670;6.184;2022-08-30T11:20:48;99009.66;;;33.01;100.00
50123;BME280;36021;48.670;6.184;2022-08-30T11:23:26;99010.00;;;33.36;100.00
50123;BME280;36021;48.670;6.184;2022-08-30T11:26:08;99011.38;;;33.76;100.00
50123;BME280;36021;48.670;6.184;2022-08-30T11:33:47;99003.81;;;35.16;97.17
50123;BME280;36021;48.670;6.184;2022-08-30T11:41:40;99008.91;;;38.11;80.59
50123;BME280;36021;48.670;6.184;2022-08-30T11:46:53;99000.63;;;40.00;73.94
50123;BME280;36021;48.670;6.184;2022-08-30T11:49:44;99003.13;;;41.65;69.45
50123;BME280;36021;48.670;6.184;2022-08-30T11:52:33;99005.91;;;41.04;68.39
50123;BME280;36021;48.670;6.184;2022-08-30T11:55:25;98993.69;;;41.50;67.89
50123;BME280;36021;48.670;6.184;2022-08-30T12:03:41;98990.75;;;42.93;60.22
50123;BME280;36021;48.670;6.184;2022-08-30T12:06:09;98983.88;;;43.28;60.55
50123;BME280;36021;48.670;6.184;2022-08-30T12:08:39;98980.06;;;42.48;59.50
50123;BME280;36021;48.670;6.184;2022-08-30T12:14:01;98971.97;;;40.12;66.69
50123;BME280;36021;48.670;6.184;2022-08-30T12:16:37;98981.19;;;41.03;62.01
50123;BME280;36021;48.670;6.184;2022-08-30T12:19:24;98973.66;;;41.12;62.04
50123;BME280;36021;48.670;6.184;2022-08-30T12:22:02;98969.59;;;40.54;63.53
50123;BME280;36021;48.670;6.184;2022-08-30T12:24:37;98964.16;;;40.03;66.65
50123;BME280;36021;48.670;6.184;2022-08-30T12:27:26;98961.53;;;40.93;63.75
50123;BME280;36021;48.670;6.184;2022-08-30T12:29:56;98970.84;;;41.52;64.24
50123;BME280;36021;48.670;6.184;2022-08-30T12:32:24;98959.22;;;42.75;58.25
50123;BME280;36021;48.670;6.184;2022-08-30T12:35:03;98964.53;;;42.77;55.97
50123;BME280;36021;48.670;6.184;2022-08-30T12:37:32;98957.75;;;41.22;58.26
50123;BME280;36021;48.670;6.184;2022-08-30T12:42:37;98965.63;;;41.01;61.08
50123;BME280;36021;48.670;6.184;2022-08-30T12:45:09;98958.91;;;41.10;56.91
50123;BME280;36021;48.670;6.184;2022-08-30T12:48:04;98949.97;;;41.88;57.17
50123;BME280;36021;48.670;6.184;2022-08-30T12:50:44;98958.00;;;43.30;52.80
50123;BME280;36021;48.670;6.184;2022-08-30T12:53:24;98950.69;;;44.10;47.99
50123;BME280;36021;48.670;6.184;2022-08-30T12:56:04;98946.94;;;43.87;45.73
50123;BME280;36021;48.670;6.184;2022-08-30T12:58:38;98948.09;;;43.42;48.03
50123;BME280;36021;48.670;6.184;2022-08-30T13:01:12;98947.66;;;42.49;49.81
50123;BME280;36021;48.670;6.184;2022-08-30T13:03:38;98941.22;;;42.66;49.63
50123;BME280;36021;48.670;6.184;2022-08-30T13:06:05;98942.59;;;41.47;49.80
50123;BME280;36021;48.670;6.184;2022-08-30T13:11:11;98931.22;;;41.03;46.69
50123;BME280;36021;48.670;6.184;2022-08-30T13:13:52;98928.94;;;39.37;52.27
50123;BME280;36021;48.670;6.184;2022-08-30T13:19:15;98922.75;;;40.21;52.55
50123;BME280;36021;48.670;6.184;2022-08-30T13:21:53;98917.16;;;40.32;53.50
50123;BME280;36021;48.670;6.184;2022-08-30T13:24:20;98915.16;;;39.94;59.38
50123;BME280;36021;48.670;6.184;2022-08-30T13:26:46;98910.88;;;39.36;63.48
50123;BME280;36021;48.670;6.184;2022-08-30T13:29:19;98909.41;;;41.07;59.56
50123;BME280;36021;48.670;6.184;2022-08-30T13:31:46;98912.63;;;41.50;57.27
50123;BME280;36021;48.670;6.184;2022-08-30T13:34:13;98903.69;;;43.36;53.39
50123;BME280;36021;48.670;6.184;2022-08-30T13:36:44;98897.50;;;42.69;52.58
50123;BME280;36021;48.670;6.184;2022-08-30T13:39:10;98901.13;;;43.60;51.57
50123;BME280;36021;48.670;6.184;2022-08-30T13:41:37;98894.78;;;45.34;49.54
50123;BME280;36021;48.670;6.184;2022-08-30T13:44:03;98891.25;;;44.39;45.87
50123;BME280;36021;48.670;6.184;2022-08-30T13:46:30;98891.25;;;44.61;44.88
50123;BME280;36021;48.670;6.184;2022-08-30T13:49:01;98891.50;;;44.74;43.70
50123;BME280;36021;48.670;6.184;2022-08-30T13:51:27;98875.88;;;44.55;43.39
50123;BME280;36021;48.670;6.184;2022-08-30T13:53:53;98884.16;;;42.88;47.48
50123;BME280;36021;48.670;6.184;2022-08-30T13:56:19;98881.59;;;42.02;50.80
50123;BME280;36021;48.670;6.184;2022-08-30T13:58:44;98879.53;;;41.56;51.27
50123;BME280;36021;48.670;6.184;2022-08-30T14:01:10;98877.97;;;41.35;52.54
50123;BME280;36021;48.670;6.184;2022-08-30T14:03:36;98868.84;;;43.36;50.04
50123;BME280;36021;48.670;6.184;2022-08-30T14:06:02;98871.03;;;42.25;49.63
50123;BME280;36021;48.670;6.184;2022-08-30T14:08:29;98871.34;;;40.25;54.59